Metar Aviation Weather Data EGNJ

21°C Temp
13°C Dewpoint
% Humidity
Temperature
10 KM/H
6 MPH
5 KTS
220°
South West

Wind Speed
Clear
Conditions
Pressure 1009.92 (hPa) - 29.82 (in)
Visibility 6.2 (mi) - 10 (km)

Current Conditions
EGNJ
Metar :EGNJ 171850Z 22005KT CAVOK 21/13 Q1010
Wed 17th July 19:50 pm

  Metar Aviation API Data Provided by https://www.checkwx.com/ PHP scripts by weather34.com ©2019